createdAt,value
2017-03-22T00:01:42.319Z,1015.178
2017-03-22T00:04:36.777Z,1015.165
2017-03-22T00:07:31.130Z,1015.218
2017-03-22T00:10:25.595Z,1015.268
2017-03-22T00:13:20.003Z,1015.309
2017-03-22T00:16:14.421Z,1015.345
2017-03-22T00:19:08.824Z,1015.365
2017-03-22T00:22:03.232Z,1015.384
2017-03-22T00:27:52.042Z,1015.441
2017-03-22T00:30:47.012Z,1015.494
2017-03-22T00:36:36.272Z,1015.560
2017-03-22T00:39:30.617Z,1015.575
2017-03-22T00:42:24.881Z,1015.564
2017-03-22T00:45:19.008Z,1015.649
2017-03-22T00:51:07.555Z,1015.740
2017-03-22T00:54:01.876Z,1015.762
2017-03-22T00:56:55.820Z,1015.800
2017-03-22T00:59:49.802Z,1015.827
2017-03-22T01:02:44.283Z,1015.865
2017-03-22T01:05:38.811Z,1015.857
2017-03-22T01:08:33.409Z,1015.862
2017-03-22T01:14:22.424Z,1015.967
2017-03-22T01:17:17.063Z,1015.985
2017-03-22T01:20:11.537Z,1016.045
2017-03-22T01:23:05.998Z,1016.071
2017-03-22T01:26:00.511Z,1016.109
2017-03-22T01:28:55.078Z,1016.128
2017-03-22T01:37:38.678Z,1016.214
2017-03-22T01:40:33.167Z,1016.249
2017-03-22T01:43:27.676Z,1016.254
2017-03-22T01:46:22.273Z,1016.275
2017-03-22T01:49:16.869Z,1016.304
2017-03-22T01:55:05.964Z,1016.251
2017-03-22T01:58:00.612Z,1016.250
2017-03-22T02:00:55.045Z,1016.287
2017-03-22T02:03:49.441Z,1016.294
2017-03-22T02:06:43.965Z,1016.343
2017-03-22T02:09:38.484Z,1016.398
2017-03-22T02:15:27.099Z,1016.453
2017-03-22T02:18:21.396Z,1016.468
2017-03-22T02:21:15.628Z,1016.451
2017-03-22T02:27:04.031Z,1016.505
2017-03-22T02:32:52.488Z,1016.541
2017-03-22T02:35:46.709Z,1016.532
2017-03-22T02:38:40.855Z,1016.579
2017-03-22T02:44:29.542Z,1016.589
2017-03-22T02:47:23.859Z,1016.616
2017-03-22T02:53:12.427Z,1016.650
2017-03-22T02:56:06.516Z,1016.662
2017-03-22T02:59:00.714Z,1016.651
2017-03-22T03:01:54.797Z,1016.651
2017-03-22T03:07:42.781Z,1016.697
2017-03-22T03:13:30.667Z,1016.678
2017-03-22T03:25:05.001Z,1016.817
2017-03-22T03:27:58.010Z,1016.855
2017-03-22T03:33:44.601Z,1016.857
2017-03-22T03:36:37.760Z,1016.870
2017-03-22T03:42:24.367Z,1016.824
2017-03-22T03:48:10.883Z,1016.824
2017-03-22T03:56:53.460Z,1016.908
2017-03-22T03:59:48.125Z,1016.881
2017-03-22T04:02:42.640Z,1016.865
2017-03-22T04:05:37.180Z,1016.895
2017-03-22T04:08:31.821Z,1016.924
2017-03-22T04:11:27.930Z,1016.964
2017-03-22T04:14:21.423Z,1016.969
2017-03-22T04:17:15.966Z,1017.032
2017-03-22T04:23:05.525Z,1017.089
2017-03-22T04:25:59.998Z,1017.106
2017-03-22T04:28:54.567Z,1017.107
2017-03-22T04:31:49.206Z,1017.151
2017-03-22T04:34:43.621Z,1017.225
2017-03-22T04:37:38.242Z,1017.307
2017-03-22T04:43:27.201Z,1017.335
2017-03-22T04:49:16.129Z,1017.359
2017-03-22T04:52:10.950Z,1017.372
2017-03-22T04:57:59.968Z,1017.496
2017-03-22T05:00:54.510Z,1017.479
2017-03-22T05:03:49.022Z,1017.429
2017-03-22T05:06:43.365Z,1017.414
2017-03-22T05:09:37.680Z,1017.504
2017-03-22T05:12:32.177Z,1017.618
2017-03-22T05:15:26.540Z,1017.679
2017-03-22T05:21:15.532Z,1017.723
2017-03-22T05:24:10.239Z,1017.684
2017-03-22T05:29:59.370Z,1017.656
2017-03-22T05:32:53.849Z,1017.609
2017-03-22T05:35:48.255Z,1017.622
2017-03-22T05:38:42.755Z,1017.581
2017-03-22T05:41:37.366Z,1017.583
2017-03-22T05:44:31.948Z,1017.623
2017-03-22T05:47:26.709Z,1017.667
2017-03-22T05:50:21.267Z,1017.657
2017-03-22T05:56:10.279Z,1017.674
2017-03-22T05:59:04.862Z,1017.700
2017-03-22T06:01:59.387Z,1017.728
2017-03-22T06:04:54.057Z,1017.767
2017-03-22T06:07:48.647Z,1017.791
2017-03-22T06:10:43.258Z,1017.731
2017-03-22T06:13:37.838Z,1017.748
2017-03-22T06:16:32.515Z,1017.691
2017-03-22T06:19:27.694Z,1017.698
2017-03-22T06:22:22.448Z,1017.689
2017-03-22T06:25:17.198Z,1017.653
2017-03-22T06:31:06.951Z,1017.665
2017-03-22T06:34:01.819Z,1017.682
2017-03-22T06:39:51.511Z,1017.630
2017-03-22T06:42:46.377Z,1017.659
2017-03-22T06:45:41.093Z,1017.671
2017-03-22T06:48:35.673Z,1017.690
2017-03-22T06:54:24.624Z,1017.668
2017-03-22T06:57:19.038Z,1017.632
2017-03-22T07:00:13.518Z,1017.609
2017-03-22T07:03:08.851Z,1017.643
2017-03-22T07:08:59.869Z,1017.655
2017-03-22T07:11:55.326Z,1017.689
2017-03-22T07:14:50.776Z,1017.719
2017-03-22T07:17:46.264Z,1017.742
2017-03-22T07:20:41.566Z,1017.764
2017-03-22T07:23:36.906Z,1017.881
2017-03-22T07:26:32.108Z,1017.943
2017-03-22T07:29:27.193Z,1018.080
2017-03-22T07:32:22.221Z,1018.122
2017-03-22T07:35:17.344Z,1018.089
2017-03-22T07:38:12.595Z,1018.114
2017-03-22T07:41:07.951Z,1018.110
2017-03-22T07:44:03.230Z,1018.090
2017-03-22T07:46:58.563Z,1018.128
2017-03-22T07:49:54.083Z,1018.120
2017-03-22T07:58:39.827Z,1018.104
2017-03-22T08:01:34.299Z,1018.129
2017-03-22T08:04:29.166Z,1018.165
2017-03-22T08:07:24.159Z,1018.155
2017-03-22T08:10:19.270Z,1018.225
2017-03-22T08:16:10.053Z,1018.298
2017-03-22T08:19:05.221Z,1018.263
2017-03-22T08:22:00.284Z,1018.332
2017-03-22T08:24:55.253Z,1018.335
2017-03-22T08:27:50.455Z,1018.340
2017-03-22T08:33:40.981Z,1018.395
2017-03-22T08:36:36.548Z,1018.446
2017-03-22T08:39:31.997Z,1018.399
2017-03-22T08:45:22.915Z,1018.350
2017-03-22T08:48:18.903Z,1018.384
2017-03-22T08:51:15.081Z,1018.418
2017-03-22T08:54:11.062Z,1018.370
2017-03-22T08:57:06.916Z,1018.383
2017-03-22T09:00:02.448Z,1018.461
2017-03-22T09:02:57.404Z,1018.542
2017-03-22T09:05:52.436Z,1018.560
2017-03-22T09:08:47.443Z,1018.531
2017-03-22T09:11:42.685Z,1018.605
2017-03-22T09:17:33.467Z,1018.602
2017-03-22T09:20:29.108Z,1018.620
2017-03-22T09:23:24.758Z,1018.584
2017-03-22T09:26:20.303Z,1018.568
2017-03-22T09:29:15.983Z,1018.535
2017-03-22T09:32:11.637Z,1018.538
2017-03-22T09:35:07.424Z,1018.536
2017-03-22T09:38:03.138Z,1018.461
2017-03-22T09:40:58.780Z,1018.424
2017-03-22T09:43:54.123Z,1018.393
2017-03-22T09:46:49.347Z,1018.409
2017-03-22T09:49:44.819Z,1018.420
2017-03-22T09:52:40.287Z,1018.389
2017-03-22T09:55:35.635Z,1018.445
2017-03-22T09:58:31.153Z,1018.410
2017-03-22T10:01:26.794Z,1018.396
2017-03-22T10:04:22.285Z,1018.401
2017-03-22T10:10:13.051Z,1018.441
2017-03-22T10:13:08.412Z,1018.445
2017-03-22T10:16:04.109Z,1018.478
2017-03-22T10:18:59.516Z,1018.422
2017-03-22T10:21:54.792Z,1018.364
2017-03-22T10:24:50.202Z,1018.430
2017-03-22T10:27:45.317Z,1018.433
2017-03-22T10:30:39.819Z,1018.497
2017-03-22T10:33:34.289Z,1018.501
2017-03-22T10:36:28.649Z,1018.556
2017-03-22T10:42:18.082Z,1018.703
2017-03-22T10:45:12.742Z,1018.728
2017-03-22T10:48:07.650Z,1018.719
2017-03-22T10:53:57.412Z,1018.745
2017-03-22T10:56:52.151Z,1018.707
2017-03-22T10:59:46.950Z,1018.650
2017-03-22T11:02:41.953Z,1018.682
2017-03-22T11:05:36.776Z,1018.710
2017-03-22T11:08:31.550Z,1018.705
2017-03-22T11:11:26.312Z,1018.713
2017-03-22T11:14:20.996Z,1018.661
2017-03-22T11:17:15.817Z,1018.679
2017-03-22T11:20:10.719Z,1018.648
2017-03-22T11:23:05.748Z,1018.704
2017-03-22T11:26:00.727Z,1018.645
2017-03-22T11:28:55.754Z,1018.636
2017-03-22T11:31:50.757Z,1018.676
2017-03-22T11:34:45.723Z,1018.742
2017-03-22T11:37:40.783Z,1018.730
2017-03-22T11:43:31.036Z,1018.705
2017-03-22T11:49:21.103Z,1018.631
2017-03-22T11:52:16.220Z,1018.647
2017-03-22T11:55:11.579Z,1018.609
2017-03-22T11:58:06.575Z,1018.590
2017-03-22T12:01:01.609Z,1018.609
2017-03-22T12:03:56.481Z,1018.602
2017-03-22T12:06:51.563Z,1018.537
2017-03-22T12:09:46.620Z,1018.560
2017-03-22T12:12:41.710Z,1018.542
2017-03-22T12:18:31.904Z,1018.507
2017-03-22T12:21:26.868Z,1018.487
2017-03-22T12:24:21.905Z,1018.517
2017-03-22T12:27:16.882Z,1018.539
2017-03-22T12:30:11.747Z,1018.580
2017-03-22T12:33:06.706Z,1018.542
2017-03-22T12:36:01.599Z,1018.612
2017-03-22T12:38:56.423Z,1018.592
2017-03-22T12:41:51.316Z,1018.546
2017-03-22T12:44:46.151Z,1018.552
2017-03-22T12:47:40.930Z,1018.534
2017-03-22T12:50:35.789Z,1018.503
2017-03-22T12:53:30.673Z,1018.441
2017-03-22T12:56:25.366Z,1018.409
2017-03-22T12:59:20.208Z,1018.440
2017-03-22T13:02:15.087Z,1018.460
2017-03-22T13:05:09.779Z,1018.466
2017-03-22T13:08:04.557Z,1018.473
2017-03-22T13:10:59.228Z,1018.518
2017-03-22T13:13:54.075Z,1018.488
2017-03-22T13:19:43.639Z,1018.475
2017-03-22T13:22:38.487Z,1018.469
2017-03-22T13:25:33.260Z,1018.472
2017-03-22T13:28:27.948Z,1018.509
2017-03-22T13:31:22.510Z,1018.526
2017-03-22T13:37:11.731Z,1018.558
2017-03-22T13:40:06.391Z,1018.523
2017-03-22T13:43:00.977Z,1018.534
2017-03-22T13:45:55.267Z,1018.462
2017-03-22T13:51:43.676Z,1018.383
2017-03-22T13:54:37.949Z,1018.385
2017-03-22T13:57:32.005Z,1018.380
2017-03-22T14:00:26.144Z,1018.329
2017-03-22T14:03:19.950Z,1018.346
2017-03-22T14:06:13.541Z,1018.308
2017-03-22T14:09:07.551Z,1018.342
2017-03-22T14:12:01.546Z,1018.353
2017-03-22T14:14:55.340Z,1018.350
2017-03-22T14:17:49.749Z,1018.382
2017-03-22T14:20:44.861Z,1018.321
2017-03-22T14:23:39.992Z,1018.313
2017-03-22T14:26:35.061Z,1018.270
2017-03-22T14:29:30.120Z,1018.272
2017-03-22T14:32:25.104Z,1018.255
2017-03-22T14:35:20.099Z,1018.225
2017-03-22T14:38:14.849Z,1018.290
2017-03-22T14:41:09.494Z,1018.313
2017-03-22T14:44:04.325Z,1018.313
2017-03-22T14:46:59.135Z,1018.324
2017-03-22T14:49:53.984Z,1018.342
2017-03-22T14:52:48.829Z,1018.344
2017-03-22T14:58:38.565Z,1018.342
2017-03-22T15:01:33.352Z,1018.393
2017-03-22T15:04:28.130Z,1018.407
2017-03-22T15:07:22.964Z,1018.398
2017-03-22T15:10:17.819Z,1018.352
2017-03-22T15:13:12.617Z,1018.370
2017-03-22T15:16:07.430Z,1018.389
2017-03-22T15:19:02.230Z,1018.360
2017-03-22T15:21:56.952Z,1018.398
2017-03-22T15:24:51.664Z,1018.374
2017-03-22T15:27:46.422Z,1018.357
2017-03-22T15:33:35.787Z,1018.403
2017-03-22T15:36:30.558Z,1018.418
2017-03-22T15:39:25.316Z,1018.412
2017-03-22T15:42:19.929Z,1018.488
2017-03-22T15:45:14.694Z,1018.484
2017-03-22T15:48:09.514Z,1018.519
2017-03-22T15:53:59.117Z,1018.544
2017-03-22T15:56:53.838Z,1018.548
2017-03-22T15:59:48.590Z,1018.548
2017-03-22T16:02:43.298Z,1018.564
2017-03-22T16:08:32.799Z,1018.565
2017-03-22T16:14:22.443Z,1018.636
2017-03-22T16:17:17.173Z,1018.604
2017-03-22T16:23:06.580Z,1018.662
2017-03-22T16:26:01.259Z,1018.677
2017-03-22T16:28:55.992Z,1018.729
2017-03-22T16:31:50.746Z,1018.763
2017-03-22T16:34:45.486Z,1018.792
2017-03-22T16:37:40.178Z,1018.818
2017-03-22T16:40:34.864Z,1018.864
2017-03-22T16:46:24.201Z,1018.985
2017-03-22T16:49:18.823Z,1018.987
2017-03-22T16:52:13.596Z,1018.983
2017-03-22T16:55:08.233Z,1019.008
2017-03-22T16:58:02.941Z,1019.061
2017-03-22T17:00:57.460Z,1019.039
2017-03-22T17:06:46.742Z,1019.055
2017-03-22T17:09:41.770Z,1019.091
2017-03-22T17:12:36.238Z,1019.080
2017-03-22T17:15:30.838Z,1019.129
2017-03-22T17:18:25.374Z,1019.132
2017-03-22T17:24:14.232Z,1019.125
2017-03-22T17:27:08.509Z,1019.178
2017-03-22T17:30:02.923Z,1019.234
2017-03-22T17:32:57.178Z,1019.302
2017-03-22T17:35:51.391Z,1019.323
2017-03-22T17:38:45.646Z,1019.362
2017-03-22T17:41:39.829Z,1019.389
2017-03-22T17:44:34.094Z,1019.414
2017-03-22T17:53:16.301Z,1019.497
2017-03-22T17:56:09.987Z,1019.495
2017-03-22T17:59:03.428Z,1019.538
2017-03-22T18:01:56.568Z,1019.570
2017-03-22T18:04:49.618Z,1019.607
2017-03-22T18:07:43.150Z,1019.602
2017-03-22T18:13:29.966Z,1019.644
2017-03-22T18:16:23.527Z,1019.669
2017-03-22T18:22:10.479Z,1019.672
2017-03-22T18:25:03.967Z,1019.669
2017-03-22T18:27:57.530Z,1019.665
2017-03-22T18:33:44.656Z,1019.660
2017-03-22T18:36:37.991Z,1019.682
2017-03-22T18:42:25.017Z,1019.683
2017-03-22T18:48:12.052Z,1019.702
2017-03-22T18:51:05.540Z,1019.714
2017-03-22T18:56:52.495Z,1019.739
2017-03-22T18:59:45.748Z,1019.736
2017-03-22T19:05:32.932Z,1019.730
2017-03-22T19:08:26.462Z,1019.721
2017-03-22T19:14:13.685Z,1019.809
2017-03-22T19:17:07.236Z,1019.825
2017-03-22T19:22:54.499Z,1019.843
2017-03-22T19:28:41.543Z,1019.901
2017-03-22T19:31:35.211Z,1019.895
2017-03-22T19:34:29.113Z,1019.901
2017-03-22T19:37:23.112Z,1019.895
2017-03-22T19:40:17.321Z,1019.967
2017-03-22T19:46:05.274Z,1019.829
2017-03-22T19:48:58.729Z,1019.850
2017-03-22T19:51:52.357Z,1019.807
2017-03-22T19:54:46.110Z,1019.821
2017-03-22T19:57:39.672Z,1019.783
2017-03-22T20:00:33.504Z,1019.823
2017-03-22T20:03:27.231Z,1019.892
2017-03-22T20:06:21.197Z,1019.932
2017-03-22T20:09:15.023Z,1019.938
2017-03-22T20:12:08.875Z,1019.967
2017-03-22T20:20:50.021Z,1020.066
2017-03-22T20:23:43.827Z,1020.091
2017-03-22T20:29:31.596Z,1020.030
2017-03-22T20:32:25.350Z,1019.970
2017-03-22T20:35:19.181Z,1020.001
2017-03-22T20:38:13.057Z,1020.026
2017-03-22T20:44:00.887Z,1020.023
2017-03-22T20:49:48.791Z,1020.069
2017-03-22T20:52:42.702Z,1020.065
2017-03-22T20:55:36.679Z,1020.085
2017-03-22T20:58:30.659Z,1020.088
2017-03-22T21:01:24.686Z,1020.062
2017-03-22T21:04:18.487Z,1020.078
2017-03-22T21:10:06.315Z,1020.029
2017-03-22T21:13:00.206Z,1020.034
2017-03-22T21:15:54.165Z,1020.010
2017-03-22T21:18:48.158Z,1020.044
2017-03-22T21:21:42.023Z,1020.035
2017-03-22T21:24:35.873Z,1020.080
2017-03-22T21:27:29.741Z,1020.114
2017-03-22T21:33:17.475Z,1020.128
2017-03-22T21:41:59.411Z,1020.188
2017-03-22T21:44:53.158Z,1020.192
2017-03-22T21:56:28.686Z,1020.211
2017-03-22T21:59:22.607Z,1020.231
2017-03-22T22:02:16.605Z,1020.219
2017-03-22T22:05:10.541Z,1020.197
2017-03-22T22:08:04.471Z,1020.198
2017-03-22T22:10:58.477Z,1020.199
2017-03-22T22:13:52.383Z,1020.187
2017-03-22T22:16:46.247Z,1020.180
2017-03-22T22:22:34.001Z,1020.126
2017-03-22T22:28:21.999Z,1020.129
2017-03-22T22:31:15.662Z,1020.171
2017-03-22T22:34:09.482Z,1020.189
2017-03-22T22:37:03.220Z,1020.181
2017-03-22T22:48:38.639Z,1020.198
2017-03-22T22:51:32.388Z,1020.243
2017-03-22T22:57:20.555Z,1020.308
2017-03-22T23:03:07.879Z,1020.277
2017-03-22T23:06:01.521Z,1020.218
2017-03-22T23:14:42.787Z,1020.184
2017-03-22T23:17:36.289Z,1020.159
2017-03-22T23:20:30.005Z,1020.186
2017-03-22T23:26:17.256Z,1020.249
2017-03-22T23:29:10.871Z,1020.221
2017-03-22T23:32:04.573Z,1020.180
2017-03-22T23:34:58.210Z,1020.189
2017-03-22T23:37:51.727Z,1020.195
2017-03-22T23:46:31.944Z,1020.044
2017-03-22T23:49:25.278Z,1020.095
2017-03-22T23:52:18.666Z,1020.069
2017-03-22T23:58:05.438Z,1020.163
